ロサンゼルス の空港の天気 - METARとTAF

ロサンゼルス国際空港 ( KLAX / LAX ) - アメリカ カリフォルニア州ロサンゼルス
飛行場実況気象(Metar)
観測時間04/16 03:53 PDT (04/16 10:53 UTC)
風向・風速静穏 0m/s
視程10km以上
天気現象
全天の4割程度の雲 雲底高度 430m
気温12.8℃
湿度80%
気圧1014.1hPa
METARKLAX 161053Z COR 00000KT 10SM SCT014 13/09 A2995 RMK AO2 SLP141 SCT V BKN T01280094 $
過去の天気等 Google飛行場航空写真 Wunderground天気予報

過去48時間のMETAR

飛行場予報(TAF)
発表時間: 4/16 04:33 PDT (4/16 11:33 UTC)
予報対象時間: 16日5時 PDT ~ 17日11時 PDT
風向・風速不定 2m/s
視程10km以上
全天を覆う雲 雲底高度 430m
16日10時 PDT から
風向・風速西 3m/s
視程10km以上
全天の4割程度の雲 雲底高度 460m
16日13時 PDT から
風向・風速西 6m/s
視程10km以上
なし
16日20時 PDT から
風向・風速西 3m/s
視程10km以上
なし
17日1時 PDT から
風向・風速不定 2m/s
視程10km以上
全天の8割程度の雲 雲底高度 370m
KLAX 161133Z 1612/1718 VRB03KT P6SM OVC014
FM161700 26006KT P6SM SCT015
FM162000 26012KT P6SM SKC
FM170300 26006KT P6SM SKC
FM170800 VRB03KT P6SM BKN012